sensor_id;sensor_type;location;lat;lon;timestamp;temperature;humidity
22290;DHT22;11313;50.116;8.424;2022-07-29T00:24:43;24.20;51.10
22290;DHT22;11313;50.116;8.424;2022-07-29T00:27:08;24.20;51.10
22290;DHT22;11313;50.116;8.424;2022-07-29T00:29:34;24.30;51.10
22290;DHT22;11313;50.116;8.424;2022-07-29T00:32:00;24.30;51.10
22290;DHT22;11313;50.116;8.424;2022-07-29T00:34:25;24.30;51.10
22290;DHT22;11313;50.116;8.424;2022-07-29T00:37:10;24.30;51.10
22290;DHT22;11313;50.116;8.424;2022-07-29T00:39:35;24.40;51.10
22290;DHT22;11313;50.116;8.424;2022-07-29T00:42:03;24.40;51.10
22290;DHT22;11313;50.116;8.424;2022-07-29T00:44:29;24.30;51.10
22290;DHT22;11313;50.116;8.424;2022-07-29T00:46:54;24.40;51.10
22290;DHT22;11313;50.116;8.424;2022-07-29T00:49:20;24.40;51.10
22290;DHT22;11313;50.116;8.424;2022-07-29T00:51:46;24.40;51.20
22290;DHT22;11313;50.116;8.424;2022-07-29T00:54:12;24.40;51.20
22290;DHT22;11313;50.116;8.424;2022-07-29T00:56:38;24.40;51.30
22290;DHT22;11313;50.116;8.424;2022-07-29T00:59:03;24.40;51.30
22290;DHT22;11313;50.116;8.424;2022-07-29T01:01:29;24.40;51.30
22290;DHT22;11313;50.116;8.424;2022-07-29T01:03:54;24.40;51.30
22290;DHT22;11313;50.116;8.424;2022-07-29T01:06:20;24.50;51.50
22290;DHT22;11313;50.116;8.424;2022-07-29T01:08:47;24.40;51.40
22290;DHT22;11313;50.116;8.424;2022-07-29T01:11:14;24.40;51.40
22290;DHT22;11313;50.116;8.424;2022-07-29T01:13:42;24.50;51.50
22290;DHT22;11313;50.116;8.424;2022-07-29T01:16:24;24.40;51.50
22290;DHT22;11313;50.116;8.424;2022-07-29T01:18:54;24.50;51.60
22290;DHT22;11313;50.116;8.424;2022-07-29T01:21:34;24.50;51.50
22290;DHT22;11313;50.116;8.424;2022-07-29T01:24:20;24.50;51.60
22290;DHT22;11313;50.116;8.424;2022-07-29T01:26:52;24.50;51.60
22290;DHT22;11313;50.116;8.424;2022-07-29T01:29:29;24.50;51.60
22290;DHT22;11313;50.116;8.424;2022-07-29T01:32:08;24.50;51.60
22290;DHT22;11313;50.116;8.424;2022-07-29T01:34:45;24.50;51.70
22290;DHT22;11313;50.116;8.424;2022-07-29T01:39:46;24.50;51.70
22290;DHT22;11313;50.116;8.424;2022-07-29T01:42:35;24.50;51.70
22290;DHT22;11313;50.116;8.424;2022-07-29T01:45:08;24.50;51.70
22290;DHT22;11313;50.116;8.424;2022-07-29T01:47:44;24.50;51.80
22290;DHT22;11313;50.116;8.424;2022-07-29T01:50:15;24.50;51.80
22290;DHT22;11313;50.116;8.424;2022-07-29T01:52:56;24.50;51.90
22290;DHT22;11313;50.116;8.424;2022-07-29T01:55:28;24.50;52.10
22290;DHT22;11313;50.116;8.424;2022-07-29T01:57:56;24.50;52.00
22290;DHT22;11313;50.116;8.424;2022-07-29T02:00:23;24.50;52.10
22290;DHT22;11313;50.116;8.424;2022-07-29T02:02:49;24.40;52.00
22290;DHT22;11313;50.116;8.424;2022-07-29T02:05:17;24.40;52.00
22290;DHT22;11313;50.116;8.424;2022-07-29T02:07:44;24.40;52.10
22290;DHT22;11313;50.116;8.424;2022-07-29T02:10:12;24.50;52.20
22290;DHT22;11313;50.116;8.424;2022-07-29T02:12:39;24.40;52.10
22290;DHT22;11313;50.116;8.424;2022-07-29T02:15:06;24.40;52.10
22290;DHT22;11313;50.116;8.424;2022-07-29T02:17:39;24.40;52.20
22290;DHT22;11313;50.116;8.424;2022-07-29T02:20:07;24.40;52.10
22290;DHT22;11313;50.116;8.424;2022-07-29T02:22:35;24.40;52.20
22290;DHT22;11313;50.116;8.424;2022-07-29T02:25:02;24.50;52.20
22290;DHT22;11313;50.116;8.424;2022-07-29T02:27:29;24.40;52.10
22290;DHT22;11313;50.116;8.424;2022-07-29T02:29:57;24.50;52.90
22290;DHT22;11313;50.116;8.424;2022-07-29T02:32:24;24.40;52.20
22290;DHT22;11313;50.116;8.424;2022-07-29T02:34:51;24.20;52.00
22290;DHT22;11313;50.116;8.424;2022-07-29T02:37:17;24.40;52.10
22290;DHT22;11313;50.116;8.424;2022-07-29T02:39:45;24.50;52.20
22290;DHT22;11313;50.116;8.424;2022-07-29T02:42:15;24.40;52.10
22290;DHT22;11313;50.116;8.424;2022-07-29T02:44:41;24.40;52.10
22290;DHT22;11313;50.116;8.424;2022-07-29T02:52:42;24.40;52.10
22290;DHT22;11313;50.116;8.424;2022-07-29T02:55:33;24.40;52.10
22290;DHT22;11313;50.116;8.424;2022-07-29T03:00:34;24.40;52.10
22290;DHT22;11313;50.116;8.424;2022-07-29T03:03:03;24.40;52.70
22290;DHT22;11313;50.116;8.424;2022-07-29T03:05:29;24.30;52.00
22290;DHT22;11313;50.116;8.424;2022-07-29T03:07:58;24.40;52.10
22290;DHT22;11313;50.116;8.424;2022-07-29T03:10:26;24.40;52.10
22290;DHT22;11313;50.116;8.424;2022-07-29T03:12:52;24.40;52.10
22290;DHT22;11313;50.116;8.424;2022-07-29T03:15:18;24.40;52.10
22290;DHT22;11313;50.116;8.424;2022-07-29T03:17:45;24.40;52.10
22290;DHT22;11313;50.116;8.424;2022-07-29T03:20:12;24.40;52.10
22290;DHT22;11313;50.116;8.424;2022-07-29T03:22:40;24.40;52.10
22290;DHT22;11313;50.116;8.424;2022-07-29T03:25:09;24.40;52.00
22290;DHT22;11313;50.116;8.424;2022-07-29T03:27:35;24.40;52.10
22290;DHT22;11313;50.116;8.424;2022-07-29T03:30:01;24.30;52.00
22290;DHT22;11313;50.116;8.424;2022-07-29T03:32:26;24.40;52.00
22290;DHT22;11313;50.116;8.424;2022-07-29T03:34:52;24.40;52.00
22290;DHT22;11313;50.116;8.424;2022-07-29T03:37:18;24.40;52.00
22290;DHT22;11313;50.116;8.424;2022-07-29T03:39:44;24.40;52.00
22290;DHT22;11313;50.116;8.424;2022-07-29T03:42:13;24.40;52.10
22290;DHT22;11313;50.116;8.424;2022-07-29T03:44:41;24.40;52.00
22290;DHT22;11313;50.116;8.424;2022-07-29T03:47:09;24.40;52.00
22290;DHT22;11313;50.116;8.424;2022-07-29T03:49:36;24.40;51.90
22290;DHT22;11313;50.116;8.424;2022-07-29T03:52:04;24.50;52.00
22290;DHT22;11313;50.116;8.424;2022-07-29T03:54:30;24.40;51.90
22290;DHT22;11313;50.116;8.424;2022-07-29T03:56:59;24.50;52.00
22290;DHT22;11313;50.116;8.424;2022-07-29T03:59:26;24.40;51.90
22290;DHT22;11313;50.116;8.424;2022-07-29T04:01:52;24.40;51.90
22290;DHT22;11313;50.116;8.424;2022-07-29T04:04:19;24.40;51.90
22290;DHT22;11313;50.116;8.424;2022-07-29T04:06:45;24.40;51.90
22290;DHT22;11313;50.116;8.424;2022-07-29T04:09:11;24.50;51.90
22290;DHT22;11313;50.116;8.424;2022-07-29T04:11:39;24.40;51.80
22290;DHT22;11313;50.116;8.424;2022-07-29T04:14:05;24.40;51.90
22290;DHT22;11313;50.116;8.424;2022-07-29T04:16:31;24.40;51.90
22290;DHT22;11313;50.116;8.424;2022-07-29T04:18:56;24.40;51.80
22290;DHT22;11313;50.116;8.424;2022-07-29T04:21:22;24.40;51.80
22290;DHT22;11313;50.116;8.424;2022-07-29T04:23:48;24.50;51.80
22290;DHT22;11313;50.116;8.424;2022-07-29T04:26:17;24.50;51.80
22290;DHT22;11313;50.116;8.424;2022-07-29T04:28:43;24.40;51.80
22290;DHT22;11313;50.116;8.424;2022-07-29T04:31:09;24.50;51.80
22290;DHT22;11313;50.116;8.424;2022-07-29T04:33:34;24.50;51.80
22290;DHT22;11313;50.116;8.424;2022-07-29T04:36:00;24.50;52.40
22290;DHT22;11313;50.116;8.424;2022-07-29T04:38:26;24.40;51.70
22290;DHT22;11313;50.116;8.424;2022-07-29T04:40:51;24.40;51.70
22290;DHT22;11313;50.116;8.424;2022-07-29T04:43:17;24.50;51.70
22290;DHT22;11313;50.116;8.424;2022-07-29T04:45:42;24.50;51.70
22290;DHT22;11313;50.116;8.424;2022-07-29T04:48:08;24.50;51.70
22290;DHT22;11313;50.116;8.424;2022-07-29T04:50:34;24.50;51.80
22290;DHT22;11313;50.116;8.424;2022-07-29T04:52:59;24.50;51.90
22290;DHT22;11313;50.116;8.424;2022-07-29T04:55:25;24.50;51.90
22290;DHT22;11313;50.116;8.424;2022-07-29T04:57:51;24.50;52.00
22290;DHT22;11313;50.116;8.424;2022-07-29T05:00:16;24.60;52.10
22290;DHT22;11313;50.116;8.424;2022-07-29T05:02:42;24.50;52.20
22290;DHT22;11313;50.116;8.424;2022-07-29T05:05:08;24.50;52.20
22290;DHT22;11313;50.116;8.424;2022-07-29T05:07:34;24.50;52.20
22290;DHT22;11313;50.116;8.424;2022-07-29T05:09:59;24.50;52.30
22290;DHT22;11313;50.116;8.424;2022-07-29T05:12:25;24.60;52.30
22290;DHT22;11313;50.116;8.424;2022-07-29T05:14:51;24.60;52.30
22290;DHT22;11313;50.116;8.424;2022-07-29T05:17:17;24.50;52.30
22290;DHT22;11313;50.116;8.424;2022-07-29T05:19:43;24.60;52.30
22290;DHT22;11313;50.116;8.424;2022-07-29T05:22:08;24.50;52.30
22290;DHT22;11313;50.116;8.424;2022-07-29T05:24:34;24.60;52.30
22290;DHT22;11313;50.116;8.424;2022-07-29T05:26:59;24.60;52.30
22290;DHT22;11313;50.116;8.424;2022-07-29T05:29:25;24.60;52.30
22290;DHT22;11313;50.116;8.424;2022-07-29T05:31:51;24.60;53.00
22290;DHT22;11313;50.116;8.424;2022-07-29T05:34:18;24.70;53.00
22290;DHT22;11313;50.116;8.424;2022-07-29T05:36:47;24.70;52.70
22290;DHT22;11313;50.116;8.424;2022-07-29T05:39:18;24.70;52.50
22290;DHT22;11313;50.116;8.424;2022-07-29T05:41:43;24.70;52.40
22290;DHT22;11313;50.116;8.424;2022-07-29T05:44:12;24.70;52.30
22290;DHT22;11313;50.116;8.424;2022-07-29T05:47:07;24.70;52.30
22290;DHT22;11313;50.116;8.424;2022-07-29T05:50:05;24.70;52.30
22290;DHT22;11313;50.116;8.424;2022-07-29T05:53:01;24.70;52.20
22290;DHT22;11313;50.116;8.424;2022-07-29T05:55:52;24.70;52.20
22290;DHT22;11313;50.116;8.424;2022-07-29T05:59:03;24.80;52.20
22290;DHT22;11313;50.116;8.424;2022-07-29T06:02:11;24.70;52.10
22290;DHT22;11313;50.116;8.424;2022-07-29T06:04:50;24.70;52.00
22290;DHT22;11313;50.116;8.424;2022-07-29T06:07:49;24.70;52.00
22290;DHT22;11313;50.116;8.424;2022-07-29T06:10:54;24.70;52.00
22290;DHT22;11313;50.116;8.424;2022-07-29T06:13:46;24.80;52.00
22290;DHT22;11313;50.116;8.424;2022-07-29T06:16:39;24.70;52.00
22290;DHT22;11313;50.116;8.424;2022-07-29T06:19:31;24.70;51.90
22290;DHT22;11313;50.116;8.424;2022-07-29T06:22:17;24.80;52.00
22290;DHT22;11313;50.116;8.424;2022-07-29T06:25:05;24.80;52.00
22290;DHT22;11313;50.116;8.424;2022-07-29T06:27:56;24.80;52.00
22290;DHT22;11313;50.116;8.424;2022-07-29T06:30:32;24.80;52.00
22290;DHT22;11313;50.116;8.424;2022-07-29T06:33:18;24.80;52.10
22290;DHT22;11313;50.116;8.424;2022-07-29T06:35:56;24.70;52.00
22290;DHT22;11313;50.116;8.424;2022-07-29T06:38:39;24.80;52.00
22290;DHT22;11313;50.116;8.424;2022-07-29T06:41:38;24.80;52.10
22290;DHT22;11313;50.116;8.424;2022-07-29T06:44:32;24.70;52.00
22290;DHT22;11313;50.116;8.424;2022-07-29T06:47:09;24.80;52.10
22290;DHT22;11313;50.116;8.424;2022-07-29T06:49:54;24.80;52.10
22290;DHT22;11313;50.116;8.424;2022-07-29T06:52:28;24.80;52.20
22290;DHT22;11313;50.116;8.424;2022-07-29T06:55:12;24.90;52.20
22290;DHT22;11313;50.116;8.424;2022-07-29T06:57:45;24.80;52.20
22290;DHT22;11313;50.116;8.424;2022-07-29T07:00:31;24.80;52.20
22290;DHT22;11313;50.116;8.424;2022-07-29T07:02:59;24.80;52.20
22290;DHT22;11313;50.116;8.424;2022-07-29T07:05:35;24.80;52.20
22290;DHT22;11313;50.116;8.424;2022-07-29T07:08:05;24.80;52.20
22290;DHT22;11313;50.116;8.424;2022-07-29T07:10:36;24.70;52.20
22290;DHT22;11313;50.116;8.424;2022-07-29T11:39:25;24.80;52.30
22290;DHT22;11313;50.116;8.424;2022-07-29T11:41:50;24.80;52.30
22290;DHT22;11313;50.116;8.424;2022-07-29T11:44:16;24.90;52.30
22290;DHT22;11313;50.116;8.424;2022-07-29T11:46:50;24.80;52.30
22290;DHT22;11313;50.116;8.424;2022-07-29T11:49:20;24.70;52.30
22290;DHT22;11313;50.116;8.424;2022-07-29T11:51:56;24.80;52.30
22290;DHT22;11313;50.116;8.424;2022-07-29T11:54:34;24.80;52.30
22290;DHT22;11313;50.116;8.424;2022-07-29T11:57:00;24.80;52.30
22290;DHT22;11313;50.116;8.424;2022-07-29T11:59:26;24.80;52.40
22290;DHT22;11313;50.116;8.424;2022-07-29T12:01:53;24.80;52.40
22290;DHT22;11313;50.116;8.424;2022-07-29T12:04:19;24.70;52.30
22290;DHT22;11313;50.116;8.424;2022-07-29T12:06:50;24.70;52.30
22290;DHT22;11313;50.116;8.424;2022-07-29T12:09:16;24.80;52.40
22290;DHT22;11313;50.116;8.424;2022-07-29T12:11:43;24.80;52.40
22290;DHT22;11313;50.116;8.424;2022-07-29T12:14:09;24.80;52.40
22290;DHT22;11313;50.116;8.424;2022-07-29T12:16:37;24.80;52.50
22290;DHT22;11313;50.116;8.424;2022-07-29T12:19:04;24.80;52.50
22290;DHT22;11313;50.116;8.424;2022-07-29T12:21:49;24.80;52.50
22290;DHT22;11313;50.116;8.424;2022-07-29T12:24:15;24.80;52.50
22290;DHT22;11313;50.116;8.424;2022-07-29T12:26:52;24.80;52.50
22290;DHT22;11313;50.116;8.424;2022-07-29T12:29:18;24.80;52.50
22290;DHT22;11313;50.116;8.424;2022-07-29T12:31:44;24.70;52.50
22290;DHT22;11313;50.116;8.424;2022-07-29T12:34:15;24.70;52.50
22290;DHT22;11313;50.116;8.424;2022-07-29T12:36:41;24.70;52.50
22290;DHT22;11313;50.116;8.424;2022-07-29T12:39:08;24.70;52.50
22290;DHT22;11313;50.116;8.424;2022-07-29T12:41:34;24.70;52.50
22290;DHT22;11313;50.116;8.424;2022-07-29T12:44:00;24.80;52.60
22290;DHT22;11313;50.116;8.424;2022-07-29T12:46:26;24.70;52.60
22290;DHT22;11313;50.116;8.424;2022-07-29T12:48:53;24.90;52.70
22290;DHT22;11313;50.116;8.424;2022-07-29T12:54:09;24.70;52.60
22290;DHT22;11313;50.116;8.424;2022-07-29T12:56:36;24.70;52.60
22290;DHT22;11313;50.116;8.424;2022-07-29T12:59:20;24.70;52.60
22290;DHT22;11313;50.116;8.424;2022-07-29T13:01:51;24.70;52.70
22290;DHT22;11313;50.116;8.424;2022-07-29T13:04:36;24.70;52.70
22290;DHT22;11313;50.116;8.424;2022-07-29T13:07:06;24.70;52.70
22290;DHT22;11313;50.116;8.424;2022-07-29T13:09:45;24.70;52.70
22290;DHT22;11313;50.116;8.424;2022-07-29T13:12:12;24.70;52.70
22290;DHT22;11313;50.116;8.424;2022-07-29T13:14:44;24.80;52.80
22290;DHT22;11313;50.116;8.424;2022-07-29T13:17:18;24.70;52.80
22290;DHT22;11313;50.116;8.424;2022-07-29T13:19:52;24.70;52.80
22290;DHT22;11313;50.116;8.424;2022-07-29T13:22:20;24.70;52.80
22290;DHT22;11313;50.116;8.424;2022-07-29T13:27:15;24.70;52.80
22290;DHT22;11313;50.116;8.424;2022-07-29T13:29:41;24.70;52.90
22290;DHT22;11313;50.116;8.424;2022-07-29T13:32:07;24.70;52.90
22290;DHT22;11313;50.116;8.424;2022-07-29T13:34:32;24.70;52.90
22290;DHT22;11313;50.116;8.424;2022-07-29T13:36:58;24.70;52.90
22290;DHT22;11313;50.116;8.424;2022-07-29T13:39:24;24.60;52.90
22290;DHT22;11313;50.116;8.424;2022-07-29T13:41:49;24.70;52.90
22290;DHT22;11313;50.116;8.424;2022-07-29T13:44:15;24.70;52.90
22290;DHT22;11313;50.116;8.424;2022-07-29T13:46:40;24.70;52.90
22290;DHT22;11313;50.116;8.424;2022-07-29T13:49:06;24.70;53.00
22290;DHT22;11313;50.116;8.424;2022-07-29T13:51:31;24.70;53.00
22290;DHT22;11313;50.116;8.424;2022-07-29T13:53:57;24.60;53.00
22290;DHT22;11313;50.116;8.424;2022-07-29T13:56:23;24.70;53.00
22290;DHT22;11313;50.116;8.424;2022-07-29T13:58:48;24.70;53.00
22290;DHT22;11313;50.116;8.424;2022-07-29T14:01:14;24.70;53.00
22290;DHT22;11313;50.116;8.424;2022-07-29T14:03:40;24.70;53.00
22290;DHT22;11313;50.116;8.424;2022-07-29T14:06:08;24.70;53.00
22290;DHT22;11313;50.116;8.424;2022-07-29T14:08:34;24.70;53.00
22290;DHT22;11313;50.116;8.424;2022-07-29T14:10:59;24.70;53.00
22290;DHT22;11313;50.116;8.424;2022-07-29T14:13:25;24.70;53.00
22290;DHT22;11313;50.116;8.424;2022-07-29T14:15:51;24.70;53.10
22290;DHT22;11313;50.116;8.424;2022-07-29T14:18:16;24.70;53.10
22290;DHT22;11313;50.116;8.424;2022-07-29T14:20:42;24.70;53.10
22290;DHT22;11313;50.116;8.424;2022-07-29T14:23:08;24.70;53.20
22290;DHT22;11313;50.116;8.424;2022-07-29T14:25:33;24.60;53.10
22290;DHT22;11313;50.116;8.424;2022-07-29T14:27:59;24.70;53.20
22290;DHT22;11313;50.116;8.424;2022-07-29T14:30:25;24.70;53.30
22290;DHT22;11313;50.116;8.424;2022-07-29T14:32:50;24.70;53.30
22290;DHT22;11313;50.116;8.424;2022-07-29T14:35:16;24.70;53.30
22290;DHT22;11313;50.116;8.424;2022-07-29T14:37:42;24.70;53.30
22290;DHT22;11313;50.116;8.424;2022-07-29T14:40:09;24.70;53.40
22290;DHT22;11313;50.116;8.424;2022-07-29T14:42:36;24.70;53.30
22290;DHT22;11313;50.116;8.424;2022-07-29T14:45:04;24.70;53.40
22290;DHT22;11313;50.116;8.424;2022-07-29T14:47:29;24.70;53.40
22290;DHT22;11313;50.116;8.424;2022-07-29T14:49:55;24.70;53.40
22290;DHT22;11313;50.116;8.424;2022-07-29T14:52:21;24.70;53.40
22290;DHT22;11313;50.116;8.424;2022-07-29T14:54:46;24.70;53.50
22290;DHT22;11313;50.116;8.424;2022-07-29T14:57:12;24.70;53.40
22290;DHT22;11313;50.116;8.424;2022-07-29T14:59:37;24.70;53.50
22290;DHT22;11313;50.116;8.424;2022-07-29T15:02:03;24.70;53.50
22290;DHT22;11313;50.116;8.424;2022-07-29T15:04:28;24.70;53.50
22290;DHT22;11313;50.116;8.424;2022-07-29T15:06:54;24.70;53.50
22290;DHT22;11313;50.116;8.424;2022-07-29T15:09:20;24.70;53.50
22290;DHT22;11313;50.116;8.424;2022-07-29T15:11:45;24.60;53.50
22290;DHT22;11313;50.116;8.424;2022-07-29T15:14:11;24.60;53.50
22290;DHT22;11313;50.116;8.424;2022-07-29T15:16:38;24.60;53.50
22290;DHT22;11313;50.116;8.424;2022-07-29T15:19:05;24.60;53.50
22290;DHT22;11313;50.116;8.424;2022-07-29T15:21:30;24.60;53.60
22290;DHT22;11313;50.116;8.424;2022-07-29T15:23:56;24.60;53.60
22290;DHT22;11313;50.116;8.424;2022-07-29T15:26:22;24.60;53.60
22290;DHT22;11313;50.116;8.424;2022-07-29T15:28:47;24.60;53.60
22290;DHT22;11313;50.116;8.424;2022-07-29T15:31:13;24.60;53.70
22290;DHT22;11313;50.116;8.424;2022-07-29T15:33:39;24.60;54.30
22290;DHT22;11313;50.116;8.424;2022-07-29T15:36:05;24.60;53.70
22290;DHT22;11313;50.116;8.424;2022-07-29T15:38:30;24.60;53.70
22290;DHT22;11313;50.116;8.424;2022-07-29T15:40:56;24.60;53.70
22290;DHT22;11313;50.116;8.424;2022-07-29T15:43:23;24.60;53.70
22290;DHT22;11313;50.116;8.424;2022-07-29T15:45:49;24.60;53.80
22290;DHT22;11313;50.116;8.424;2022-07-29T15:48:33;24.60;53.80
22290;DHT22;11313;50.116;8.424;2022-07-29T15:51:02;24.60;53.80
22290;DHT22;11313;50.116;8.424;2022-07-29T15:53:28;24.60;53.80
22290;DHT22;11313;50.116;8.424;2022-07-29T15:55:54;24.60;53.80
22290;DHT22;11313;50.116;8.424;2022-07-29T15:58:19;24.60;53.80
22290;DHT22;11313;50.116;8.424;2022-07-29T16:00:45;24.60;53.90
22290;DHT22;11313;50.116;8.424;2022-07-29T16:03:11;24.60;53.80
22290;DHT22;11313;50.116;8.424;2022-07-29T16:05:37;24.60;53.90
22290;DHT22;11313;50.116;8.424;2022-07-29T16:08:02;24.60;53.90
22290;DHT22;11313;50.116;8.424;2022-07-29T16:10:28;24.60;53.90
22290;DHT22;11313;50.116;8.424;2022-07-29T16:12:53;24.60;53.90
22290;DHT22;11313;50.116;8.424;2022-07-29T16:15:19;24.60;54.00
22290;DHT22;11313;50.116;8.424;2022-07-29T16:17:44;24.60;54.00
22290;DHT22;11313;50.116;8.424;2022-07-29T16:20:10;24.60;54.00
22290;DHT22;11313;50.116;8.424;2022-07-29T16:22:36;24.60;54.10
22290;DHT22;11313;50.116;8.424;2022-07-29T16:25:01;24.60;54.10
22290;DHT22;11313;50.116;8.424;2022-07-29T16:27:27;24.60;54.10
22290;DHT22;11313;50.116;8.424;2022-07-29T16:29:53;24.60;54.10
22290;DHT22;11313;50.116;8.424;2022-07-29T16:32:20;24.60;54.10
22290;DHT22;11313;50.116;8.424;2022-07-29T16:34:46;24.60;54.20
22290;DHT22;11313;50.116;8.424;2022-07-29T16:37:11;24.50;54.10
22290;DHT22;11313;50.116;8.424;2022-07-29T16:39:37;24.60;54.20
22290;DHT22;11313;50.116;8.424;2022-07-29T16:42:03;24.50;54.20
22290;DHT22;11313;50.116;8.424;2022-07-29T16:44:28;24.60;54.20
22290;DHT22;11313;50.116;8.424;2022-07-29T16:46:54;24.50;54.20
22290;DHT22;11313;50.116;8.424;2022-07-29T16:49:19;24.60;54.30
22290;DHT22;11313;50.116;8.424;2022-07-29T16:51:45;24.50;54.20
22290;DHT22;11313;50.116;8.424;2022-07-29T16:54:12;24.60;54.30
22290;DHT22;11313;50.116;8.424;2022-07-29T16:56:38;24.60;54.40
22290;DHT22;11313;50.116;8.424;2022-07-29T16:59:03;24.50;54.40
22290;DHT22;11313;50.116;8.424;2022-07-29T17:01:29;24.60;54.40
22290;DHT22;11313;50.116;8.424;2022-07-29T17:03:54;24.50;54.40
22290;DHT22;11313;50.116;8.424;2022-07-29T17:06:37;24.50;54.50
22290;DHT22;11313;50.116;8.424;2022-07-29T17:09:03;24.50;54.50
22290;DHT22;11313;50.116;8.424;2022-07-29T17:11:29;24.50;54.60
22290;DHT22;11313;50.116;8.424;2022-07-29T17:13:55;24.50;54.60
22290;DHT22;11313;50.116;8.424;2022-07-29T17:16:26;24.50;54.70
22290;DHT22;11313;50.116;8.424;2022-07-29T17:18:53;24.50;54.70
22290;DHT22;11313;50.116;8.424;2022-07-29T17:21:18;24.50;54.80
22290;DHT22;11313;50.116;8.424;2022-07-29T17:23:44;24.50;54.80
22290;DHT22;11313;50.116;8.424;2022-07-29T17:26:10;24.50;54.90
22290;DHT22;11313;50.116;8.424;2022-07-29T17:28:35;24.50;54.90
22290;DHT22;11313;50.116;8.424;2022-07-29T17:31:01;24.50;54.90
22290;DHT22;11313;50.116;8.424;2022-07-29T17:33:26;24.50;54.90
22290;DHT22;11313;50.116;8.424;2022-07-29T17:35:52;24.50;54.90
22290;DHT22;11313;50.116;8.424;2022-07-29T17:38:36;24.50;54.90
22290;DHT22;11313;50.116;8.424;2022-07-29T17:41:01;24.50;54.90
22290;DHT22;11313;50.116;8.424;2022-07-29T17:43:27;24.50;55.00
22290;DHT22;11313;50.116;8.424;2022-07-29T17:45:52;24.50;55.00
22290;DHT22;11313;50.116;8.424;2022-07-29T17:48:18;24.60;55.00
22290;DHT22;11313;50.116;8.424;2022-07-29T17:50:45;24.50;55.00
22290;DHT22;11313;50.116;8.424;2022-07-29T17:53:11;24.50;55.00
22290;DHT22;11313;50.116;8.424;2022-07-29T17:55:37;24.60;55.10
22290;DHT22;11313;50.116;8.424;2022-07-29T17:58:04;24.50;55.00
22290;DHT22;11313;50.116;8.424;2022-07-29T18:00:30;24.50;55.00
22290;DHT22;11313;50.116;8.424;2022-07-29T18:02:56;24.50;55.00
22290;DHT22;11313;50.116;8.424;2022-07-29T18:05:21;24.50;55.10
22290;DHT22;11313;50.116;8.424;2022-07-29T18:07:47;24.50;55.10
22290;DHT22;11313;50.116;8.424;2022-07-29T18:10:13;24.50;55.00
22290;DHT22;11313;50.116;8.424;2022-07-29T18:12:38;24.50;55.10
22290;DHT22;11313;50.116;8.424;2022-07-29T18:15:04;24.50;55.10
22290;DHT22;11313;50.116;8.424;2022-07-29T18:17:30;24.50;55.10
22290;DHT22;11313;50.116;8.424;2022-07-29T18:19:55;24.50;55.10
22290;DHT22;11313;50.116;8.424;2022-07-29T18:22:21;24.50;55.10
22290;DHT22;11313;50.116;8.424;2022-07-29T18:24:46;24.50;55.10
22290;DHT22;11313;50.116;8.424;2022-07-29T18:27:12;24.50;55.10
22290;DHT22;11313;50.116;8.424;2022-07-29T18:29:38;24.50;55.10
22290;DHT22;11313;50.116;8.424;2022-07-29T18:32:03;24.50;55.10
22290;DHT22;11313;50.116;8.424;2022-07-29T18:34:29;24.50;55.10
22290;DHT22;11313;50.116;8.424;2022-07-29T18:36:55;24.50;55.10
22290;DHT22;11313;50.116;8.424;2022-07-29T18:39:20;24.40;55.10
22290;DHT22;11313;50.116;8.424;2022-07-29T18:41:46;24.60;55.20
22290;DHT22;11313;50.116;8.424;2022-07-29T18:44:11;24.60;55.30
22290;DHT22;11313;50.116;8.424;2022-07-29T18:46:41;24.50;55.30
22290;DHT22;11313;50.116;8.424;2022-07-29T18:49:07;24.50;55.30
22290;DHT22;11313;50.116;8.424;2022-07-29T18:51:32;24.50;55.30
22290;DHT22;11313;50.116;8.424;2022-07-29T18:53:58;24.50;55.30
22290;DHT22;11313;50.116;8.424;2022-07-29T18:56:23;24.50;55.30
22290;DHT22;11313;50.116;8.424;2022-07-29T18:58:49;24.50;55.30
22290;DHT22;11313;50.116;8.424;2022-07-29T19:01:14;24.50;55.30
22290;DHT22;11313;50.116;8.424;2022-07-29T19:03:40;24.50;55.40
22290;DHT22;11313;50.116;8.424;2022-07-29T19:06:06;24.50;55.40
22290;DHT22;11313;50.116;8.424;2022-07-29T19:08:31;24.50;55.40
22290;DHT22;11313;50.116;8.424;2022-07-29T19:10:57;24.50;55.50
22290;DHT22;11313;50.116;8.424;2022-07-29T19:13:22;24.50;55.50
22290;DHT22;11313;50.116;8.424;2022-07-29T19:15:48;24.50;55.50
22290;DHT22;11313;50.116;8.424;2022-07-29T19:18:13;24.50;55.60
22290;DHT22;11313;50.116;8.424;2022-07-29T19:20:39;24.50;55.70
22290;DHT22;11313;50.116;8.424;2022-07-29T19:23:06;24.50;55.60
22290;DHT22;11313;50.116;8.424;2022-07-29T19:25:33;24.50;55.60
22290;DHT22;11313;50.116;8.424;2022-07-29T19:27:59;24.50;55.70
22290;DHT22;11313;50.116;8.424;2022-07-29T19:30:24;24.50;55.70
22290;DHT22;11313;50.116;8.424;2022-07-29T19:32:50;24.50;55.70
22290;DHT22;11313;50.116;8.424;2022-07-29T19:35:15;24.50;56.20
22290;DHT22;11313;50.116;8.424;2022-07-29T19:37:56;24.50;55.80
22290;DHT22;11313;50.116;8.424;2022-07-29T19:40:23;24.60;55.80
22290;DHT22;11313;50.116;8.424;2022-07-29T19:42:50;24.50;55.80
22290;DHT22;11313;50.116;8.424;2022-07-29T19:45:18;24.50;55.80
22290;DHT22;11313;50.116;8.424;2022-07-29T19:47:45;24.50;55.80
22290;DHT22;11313;50.116;8.424;2022-07-29T19:50:11;24.50;55.80
22290;DHT22;11313;50.116;8.424;2022-07-29T19:52:37;24.50;55.80
22290;DHT22;11313;50.116;8.424;2022-07-29T19:55:04;24.50;55.90
22290;DHT22;11313;50.116;8.424;2022-07-29T19:57:30;24.50;58.90
22290;DHT22;11313;50.116;8.424;2022-07-29T19:59:55;24.50;59.90
22290;DHT22;11313;50.116;8.424;2022-07-29T20:02:21;24.50;60.70
22290;DHT22;11313;50.116;8.424;2022-07-29T20:04:46;24.50;61.30
22290;DHT22;11313;50.116;8.424;2022-07-29T20:07:12;24.60;61.40
22290;DHT22;11313;50.116;8.424;2022-07-29T20:09:38;24.50;61.40
22290;DHT22;11313;50.116;8.424;2022-07-29T20:12:06;24.50;60.60
22290;DHT22;11313;50.116;8.424;2022-07-29T20:14:31;24.50;59.90
22290;DHT22;11313;50.116;8.424;2022-07-29T20:16:57;24.50;59.60
22290;DHT22;11313;50.116;8.424;2022-07-29T20:19:23;24.50;59.40
22290;DHT22;11313;50.116;8.424;2022-07-29T20:21:48;24.50;59.20
22290;DHT22;11313;50.116;8.424;2022-07-29T20:24:15;24.50;59.00
22290;DHT22;11313;50.116;8.424;2022-07-29T20:26:41;24.50;58.90
22290;DHT22;11313;50.116;8.424;2022-07-29T20:29:07;24.50;58.80
22290;DHT22;11313;50.116;8.424;2022-07-29T20:31:32;24.50;58.70
22290;DHT22;11313;50.116;8.424;2022-07-29T20:33:59;24.40;58.60
22290;DHT22;11313;50.116;8.424;2022-07-29T20:36:25;24.40;58.50
22290;DHT22;11313;50.116;8.424;2022-07-29T20:38:52;24.40;58.40
22290;DHT22;11313;50.116;8.424;2022-07-29T20:41:18;24.40;58.30
22290;DHT22;11313;50.116;8.424;2022-07-29T20:43:43;24.40;58.20
22290;DHT22;11313;50.116;8.424;2022-07-29T20:46:09;24.40;58.20